createdAt,value
2022-08-02T00:01:10.954Z,2.00
2022-08-02T00:06:12.886Z,2.15
2022-08-02T00:11:19.746Z,2.00
2022-08-02T00:16:21.483Z,2.00
2022-08-02T00:21:39.750Z,2.08
2022-08-02T00:26:41.695Z,2.50
2022-08-02T00:31:43.437Z,2.40
2022-08-02T00:36:47.685Z,2.60
2022-08-02T00:41:53.006Z,2.67
2022-08-02T00:46:58.037Z,3.20
2022-08-02T00:52:00.185Z,3.20
2022-08-02T00:57:05.284Z,2.83
2022-08-02T01:02:10.290Z,3.60
2022-08-02T01:07:31.060Z,3.03
2022-08-02T01:12:35.175Z,2.90
2022-08-02T01:18:04.162Z,4.50
2022-08-02T01:23:12.455Z,4.03
2022-08-02T01:28:42.706Z,4.60
2022-08-02T01:34:17.408Z,4.18
2022-08-02T01:39:26.975Z,4.30
2022-08-02T01:44:36.750Z,3.63
2022-08-02T01:49:39.973Z,3.75
2022-08-02T01:54:43.909Z,3.53
2022-08-02T01:59:49.111Z,3.40
2022-08-02T02:04:54.030Z,3.30
2022-08-02T02:09:59.011Z,3.47
2022-08-02T02:15:02.577Z,2.90
2022-08-02T02:20:09.189Z,3.35
2022-08-02T02:25:19.487Z,3.40
2022-08-02T02:30:33.078Z,2.80
2022-08-02T02:35:41.654Z,2.72
2022-08-02T02:40:48.098Z,3.35
2022-08-02T02:45:50.116Z,3.55
2022-08-02T02:50:52.272Z,3.72
2022-08-02T02:56:02.550Z,3.45
2022-08-02T03:01:55.798Z,5.40
2022-08-02T03:06:45.281Z,4.72
2022-08-02T03:11:49.610Z,4.50
2022-08-02T03:16:53.565Z,5.25
2022-08-02T03:21:58.315Z,4.95
2022-08-02T03:27:00.073Z,3.80
2022-08-02T03:32:04.561Z,3.47
2022-08-02T03:37:08.671Z,3.63
2022-08-02T03:42:15.505Z,3.28
2022-08-02T03:47:22.339Z,2.83
2022-08-02T03:52:27.269Z,3.75
2022-08-02T03:57:31.384Z,3.20
2022-08-02T04:02:36.062Z,3.47
2022-08-02T04:08:32.556Z,3.40
2022-08-02T04:13:10.617Z,3.38
2022-08-02T04:18:12.570Z,3.38
2022-08-02T04:23:15.361Z,3.50
2022-08-02T04:28:18.451Z,3.75
2022-08-02T04:33:22.852Z,3.75
2022-08-02T04:38:25.012Z,3.53
2022-08-02T04:43:26.772Z,3.63
2022-08-02T04:48:32.547Z,3.63
2022-08-02T04:53:40.519Z,3.70
2022-08-02T04:58:47.084Z,3.85
2022-08-02T05:03:54.348Z,3.20
2022-08-02T05:08:58.514Z,3.80
2022-08-02T05:14:05.432Z,3.65
2022-08-02T05:19:08.068Z,3.13
2022-08-02T05:24:12.441Z,2.97
2022-08-02T05:29:16.698Z,2.92
2022-08-02T05:34:18.419Z,3.08
2022-08-02T05:39:22.496Z,3.13
2022-08-02T05:44:27.314Z,2.90
2022-08-02T05:49:33.341Z,3.05
2022-08-02T05:54:49.465Z,2.50
2022-08-02T06:00:05.053Z,2.58
2022-08-02T06:05:22.639Z,2.72
2022-08-02T06:10:28.893Z,2.25
2022-08-02T06:15:33.903Z,2.20
2022-08-02T06:20:42.752Z,2.38
2022-08-02T06:25:49.714Z,2.30
2022-08-02T06:30:55.917Z,2.50
2022-08-02T06:36:19.404Z,2.72
2022-08-02T06:41:24.073Z,2.72
2022-08-02T06:47:09.170Z,2.45
2022-08-02T06:51:52.417Z,2.38
2022-08-02T06:56:59.109Z,3.03
2022-08-02T07:02:03.345Z,2.80
2022-08-02T07:07:12.688Z,3.40
2022-08-02T07:12:14.608Z,4.35
2022-08-02T07:17:19.065Z,3.10
2022-08-02T07:22:27.009Z,2.92
2022-08-02T07:27:32.223Z,3.15
2022-08-02T07:32:34.183Z,2.75
2022-08-02T07:37:54.983Z,3.13
2022-08-02T07:43:04.609Z,2.78
2022-08-02T07:48:08.564Z,3.47
2022-08-02T07:53:10.352Z,2.80
2022-08-02T07:58:14.495Z,3.28
2022-08-02T08:03:16.224Z,3.35
2022-08-02T08:08:24.968Z,2.83
2022-08-02T08:13:27.804Z,2.97
2022-08-02T08:18:32.278Z,2.97
2022-08-02T08:23:42.137Z,2.88
2022-08-02T08:28:43.956Z,2.83
2022-08-02T08:33:49.563Z,2.40
2022-08-02T08:38:52.550Z,2.30
2022-08-02T08:43:59.195Z,2.33
2022-08-02T08:49:06.792Z,2.13
2022-08-02T08:54:15.868Z,2.60
2022-08-02T08:59:21.146Z,2.55
2022-08-02T09:04:23.621Z,2.05
2022-08-02T09:09:25.548Z,2.08
2022-08-02T09:14:29.378Z,1.75
2022-08-02T09:19:46.255Z,1.92
2022-08-02T09:24:50.443Z,1.70
2022-08-02T09:30:12.423Z,1.50
2022-08-02T09:36:05.816Z,1.52
2022-08-02T09:41:05.731Z,1.10
2022-08-02T09:46:22.914Z,1.40
2022-08-02T09:51:32.268Z,1.67
2022-08-02T09:56:44.685Z,1.70
2022-08-02T10:01:58.869Z,1.50
2022-08-02T10:07:15.986Z,1.60
2022-08-02T10:12:18.515Z,1.30
2022-08-02T10:17:23.519Z,1.58
2022-08-02T10:22:25.641Z,1.30
2022-08-02T10:27:43.256Z,1.30
2022-08-02T10:32:57.075Z,0.88
2022-08-02T10:38:08.391Z,1.52
2022-08-02T10:43:10.126Z,1.30
2022-08-02T10:48:14.711Z,1.40
2022-08-02T10:53:34.975Z,1.23
2022-08-02T10:58:40.248Z,1.27
2022-08-02T11:03:49.753Z,1.30
2022-08-02T11:09:33.469Z,1.33
2022-08-02T11:14:43.298Z,1.27
2022-08-02T11:20:24.055Z,1.30
2022-08-02T11:26:00.973Z,1.20
2022-08-02T11:31:08.940Z,1.00
2022-08-02T11:36:13.514Z,1.10
2022-08-02T11:41:46.156Z,1.05
2022-08-02T11:47:04.561Z,1.58
2022-08-02T11:52:08.171Z,1.10
2022-08-02T11:57:22.500Z,1.13
2022-08-02T12:02:32.667Z,1.15
2022-08-02T12:07:37.677Z,1.33
2022-08-02T12:12:58.001Z,1.10
2022-08-02T12:18:22.919Z,1.20
2022-08-02T12:23:28.540Z,1.08
2022-08-02T12:28:34.530Z,1.15
2022-08-02T12:33:57.476Z,0.98
2022-08-02T12:39:04.934Z,1.00
2022-08-02T12:44:19.820Z,1.40
2022-08-02T12:49:21.846Z,1.20
2022-08-02T12:54:31.729Z,1.00
2022-08-02T12:59:38.899Z,1.20
2022-08-02T13:04:52.405Z,1.63
2022-08-02T13:10:02.539Z,1.50
2022-08-02T13:15:12.493Z,1.20
2022-08-02T13:20:33.951Z,1.38
2022-08-02T13:25:36.609Z,1.38
2022-08-02T13:30:39.651Z,1.17
2022-08-02T13:35:46.173Z,1.60
2022-08-02T13:41:08.263Z,1.48
2022-08-02T13:46:11.129Z,1.60
2022-08-02T13:51:14.853Z,1.50
2022-08-02T13:56:17.043Z,1.70
2022-08-02T14:01:20.357Z,1.77
2022-08-02T14:06:22.538Z,1.70
2022-08-02T14:11:24.501Z,1.40
2022-08-02T14:16:32.982Z,1.70
2022-08-02T14:21:46.756Z,1.80
2022-08-02T14:26:50.590Z,1.60
2022-08-02T14:31:52.476Z,2.10
2022-08-02T14:36:56.406Z,1.83
2022-08-02T14:42:01.003Z,1.80
2022-08-02T14:47:05.888Z,1.92
2022-08-02T14:52:08.205Z,2.05
2022-08-02T14:57:12.472Z,1.98
2022-08-02T15:02:14.842Z,2.03
2022-08-02T15:07:17.075Z,1.55
2022-08-02T15:12:19.780Z,2.08
2022-08-02T15:17:22.058Z,1.85
2022-08-02T15:22:24.865Z,1.95
2022-08-02T15:27:30.604Z,1.90
2022-08-02T15:32:37.451Z,2.58
2022-08-02T15:37:57.803Z,2.00
2022-08-02T15:43:05.286Z,2.05
2022-08-02T15:48:10.503Z,2.05
2022-08-02T15:53:14.042Z,2.22
2022-08-02T15:58:18.012Z,1.80
2022-08-02T16:03:28.017Z,1.60
2022-08-02T16:08:30.655Z,2.10
2022-08-02T16:13:52.697Z,1.42
2022-08-02T16:18:56.154Z,1.30
2022-08-02T16:24:03.076Z,1.63
2022-08-02T16:29:07.580Z,1.50
2022-08-02T16:34:09.675Z,1.53
2022-08-02T16:39:12.021Z,1.33
2022-08-02T16:50:05.767Z,1.48
2022-08-02T16:55:12.724Z,1.60
2022-08-02T17:00:15.564Z,1.60
2022-08-02T17:05:22.934Z,1.60
2022-08-02T17:10:37.523Z,1.60
2022-08-02T17:16:17.081Z,1.75
2022-08-02T17:21:08.837Z,1.70
2022-08-02T17:26:15.838Z,2.20
2022-08-02T17:31:17.837Z,2.10
2022-08-02T17:36:36.483Z,1.77
2022-08-02T17:41:49.076Z,2.00
2022-08-02T17:46:57.510Z,2.33
2022-08-02T17:52:48.262Z,2.47
2022-08-02T17:57:56.987Z,2.20
2022-08-02T18:02:58.298Z,2.25
2022-08-02T18:08:01.062Z,1.90
2022-08-02T18:13:09.750Z,1.77
2022-08-02T18:18:19.182Z,2.05
2022-08-02T18:23:31.307Z,2.00
2022-08-02T18:28:45.756Z,1.95
2022-08-02T18:34:07.145Z,2.17
2022-08-02T18:39:21.534Z,2.30
2022-08-02T18:44:33.520Z,2.20
2022-08-02T18:49:50.399Z,2.20
2022-08-02T18:55:10.495Z,2.20
2022-08-02T19:00:32.316Z,2.22
2022-08-02T19:05:51.775Z,2.60
2022-08-02T19:11:02.472Z,2.60
2022-08-02T19:16:07.693Z,2.80
2022-08-02T19:21:11.868Z,2.28
2022-08-02T19:26:13.597Z,2.45
2022-08-02T19:31:19.167Z,2.72
2022-08-02T19:36:21.159Z,2.70
2022-08-02T19:41:27.283Z,2.60
2022-08-02T19:46:49.195Z,2.75
2022-08-02T19:51:57.407Z,2.95
2022-08-02T19:56:59.130Z,2.75
2022-08-02T20:02:06.263Z,3.00
2022-08-02T20:07:12.908Z,3.20
2022-08-02T20:12:26.359Z,2.83
2022-08-02T20:17:31.595Z,3.17
2022-08-02T20:22:55.201Z,3.17
2022-08-02T20:27:59.510Z,3.50
2022-08-02T20:33:22.137Z,3.70
2022-08-02T20:38:24.978Z,3.67
2022-08-02T20:43:31.319Z,3.80
2022-08-02T20:48:39.563Z,3.70
2022-08-02T20:53:56.198Z,3.53
2022-08-02T20:59:03.698Z,3.63
2022-08-02T21:04:13.259Z,3.10
2022-08-02T21:09:52.513Z,3.63
2022-08-02T21:14:45.428Z,3.45
2022-08-02T21:19:52.697Z,3.80
2022-08-02T21:24:54.423Z,3.63
2022-08-02T21:30:00.356Z,3.63
2022-08-02T21:35:06.175Z,3.60
2022-08-02T21:40:15.034Z,3.65
2022-08-02T21:45:20.037Z,3.38
2022-08-02T21:50:22.049Z,3.70
2022-08-02T21:56:00.612Z,3.85
2022-08-02T22:00:49.801Z,3.80
2022-08-02T22:05:54.201Z,4.10
2022-08-02T22:11:03.812Z,4.25
2022-08-02T22:16:05.695Z,4.07
2022-08-02T22:21:14.166Z,3.90
2022-08-02T22:26:21.816Z,4.38
2022-08-02T22:31:41.157Z,3.75
2022-08-02T22:36:46.409Z,4.03
2022-08-02T22:42:05.610Z,4.43
2022-08-02T22:47:14.647Z,3.88
2022-08-02T22:52:19.264Z,4.35
2022-08-02T22:57:30.514Z,3.95
2022-08-02T22:58:34.616Z,1.67
2022-08-02T23:02:36.098Z,4.25
2022-08-02T23:07:42.305Z,4.30
2022-08-02T23:12:46.522Z,4.10
2022-08-02T23:18:09.470Z,4.00
2022-08-02T23:23:12.174Z,4.20
2022-08-02T23:28:14.394Z,4.30
2022-08-02T23:33:22.055Z,3.97
2022-08-02T23:38:23.814Z,5.30
2022-08-02T23:43:25.545Z,4.28
2022-08-02T23:48:29.571Z,5.40
2022-08-02T23:53:35.982Z,4.15
2022-08-02T23:58:43.662Z,4.40
